^^
Saratoga-Weather Station Historical Data
Daily Summary for January 2, 2021 Units:  Metric    English   Both
Daily Weekly Monthly Yearly Custom
  High: Low: Average:
Temperature: 22.1 °C 13.9 °C 17.1 °C
Dew Point: 15 °C 12 °C 13.5 °C
Humidity: 95% 55% 80%
Wind Speed: 20.9km/h 0km/h 3.3km/h
Wind Gust: 24.1km/h - -
Wind- - West
Pressure: 1014.6 hPa 1012.5 hPa -
Precipitation: 1.5 mm    
Historical Graphs
 
 
Tabular Data for January 2, 2021
Time Temperature Dew Point Pressure Wind Wind Speed Wind Gust Humidity Rainfall Rate (Hourly) solar
00:01 15.4 °C 12.3 °C 1012.5 hPa WSW 1.4 km/h 4.8 km/h 82% 0.0 mm 0 W/m2
00:06 15.4 °C 12.2 °C 1012.5 hPa West 9.7 km/h 14.5 km/h 81% 0.0 mm 0 W/m2
00:25 15 °C 12.1 °C 1012.5 hPa WSW 6.4 km/h 14.5 km/h 83% 0.0 mm 0 W/m2
00:30 15 °C 12.3 °C 1012.5 hPa West 4.7 km/h 12.9 km/h 84% 0.0 mm 0 W/m2
00:35 15 °C 12.3 °C 1012.5 hPa WNW 6.4 km/h 14.5 km/h 84% 0.0 mm 0 W/m2
00:40 15.1 °C 12.4 °C 1012.5 hPa West 1.4 km/h 12.9 km/h 84% 0.0 mm 0 W/m2
00:45 15.1 °C 12.2 °C 1012.5 hPa West 3.2 km/h 17.7 km/h 83% 0.0 mm 0 W/m2
00:50 15.2 °C 12.3 °C 1012.5 hPa WSW 3.2 km/h 6.4 km/h 83% 0.0 mm 0 W/m2
00:55 15.2 °C 12.3 °C 1012.5 hPa West 4.7 km/h 17.7 km/h 83% 0.0 mm 0 W/m2
01:01 15.2 °C 12.3 °C 1012.5 hPa West 4.7 km/h 8 km/h 83% 0.0 mm 0 W/m2
01:06 15.3 °C 12.4 °C 1012.5 hPa West 6.4 km/h 12.9 km/h 83% 0.0 mm 0 W/m2
01:11 15.3 °C 12.4 °C 1012.5 hPa South 3.2 km/h 11.3 km/h 83% 0.0 mm 0 W/m2
01:16 15.3 °C 12.4 °C 1012.5 hPa Calm   4.8 km/h 83% 0.0 mm 0 W/m2
01:21 15.4 °C 12.5 °C 1012.5 hPa SW 4.7 km/h 11.3 km/h 83% 0.0 mm 0 W/m2
01:26 15.4 °C 12.3 °C 1012.5 hPa WSW 3.2 km/h 6.4 km/h 82% 0.0 mm 0 W/m2
01:31 15.5 °C 12.4 °C 1012.5 hPa WSW 1.4 km/h 11.3 km/h 82% 0.0 mm 0 W/m2
01:36 15.4 °C 12.5 °C 1012.5 hPa WNW 3.2 km/h 6.4 km/h 83% 0.0 mm 0 W/m2
01:41 15.4 °C 12.5 °C 1012.5 hPa Calm   1.6 km/h 83% 0.0 mm 0 W/m2
01:46 15.4 °C 12.5 °C 1012.5 hPa NW 1.4 km/h 3.2 km/h 83% 0.0 mm 0 W/m2
01:51 15.3 °C 12.4 °C 1012.5 hPa WNW 1.4 km/h 9.7 km/h 83% 0.0 mm 0 W/m2
01:56 15.2 °C 12.5 °C 1012.5 hPa WSW 3.2 km/h 6.4 km/h 84% 0.0 mm 0 W/m2
02:01 15.1 °C 12.4 °C 1012.5 hPa SW 3.2 km/h 4.8 km/h 84% 0.0 mm 0 W/m2
02:06 15 °C 12.3 °C 1012.5 hPa NW 4.7 km/h 8 km/h 84% 0.0 mm 0 W/m2
02:11 15 °C 12.3 °C 1012.5 hPa WNW 4.7 km/h 6.4 km/h 84% 0.0 mm 0 W/m2
02:16 14.9 °C 12.4 °C 1012.5 hPa WNW 1.4 km/h 3.2 km/h 85% 0.0 mm 0 W/m2
02:21 14.9 °C 12.4 °C 1012.5 hPa NW 3.2 km/h 4.8 km/h 85% 0.0 mm 0 W/m2
02:26 14.8 °C 12.3 °C 1012.5 hPa Calm   3.2 km/h 85% 0.0 mm 0 W/m2
02:31 14.8 °C 12.5 °C 1012.5 hPa Calm   3.2 km/h 86% 0.0 mm 0 W/m2
02:36 14.7 °C 12.4 °C 1012.5 hPa Calm   3.2 km/h 86% 0.0 mm 0 W/m2
02:54 14.4 °C 12.3 °C 1012.5 hPa Calm   3.2 km/h 87% 0.0 mm 0 W/m2
02:59 14.4 °C 12.3 °C 1012.5 hPa Calm     87% 0.0 mm 0 W/m2
03:04 14.5 °C 12.4 °C 1012.5 hPa Calm   6.4 km/h 87% 0.0 mm 0 W/m2
03:09 14.6 °C 12.5 °C 1012.5 hPa Calm   3.2 km/h 87% 0.0 mm 0 W/m2
03:14 14.6 °C 12.5 °C 1012.5 hPa Calm   1.6 km/h 87% 0.0 mm 0 W/m2
03:19 14.7 °C 12.6 °C 1012.5 hPa Calm   3.2 km/h 87% 0.0 mm 0 W/m2
03:24 14.7 °C 12.6 °C 1012.5 hPa Calm   1.6 km/h 87% 0.0 mm 0 W/m2
03:29 14.6 °C 12.5 °C 1012.9 hPa Calm   1.6 km/h 87% 0.0 mm 0 W/m2
03:34 14.5 °C 12.4 °C 1012.5 hPa Calm   1.6 km/h 87% 0.0 mm 0 W/m2
03:39 14.4 °C 12.4 °C 1012.5 hPa NNE 1.4 km/h 3.2 km/h 88% 0.0 mm 0 W/m2
03:44 14.4 °C 12.4 °C 1012.5 hPa Calm   1.6 km/h 88% 0.0 mm 0 W/m2
03:49 14.3 °C 12.3 °C 1012.5 hPa Calm   3.2 km/h 88% 0.0 mm 0 W/m2
03:54 14.3 °C 12.5 °C 1012.5 hPa Calm   4.8 km/h 89% 0.0 mm 0 W/m2
03:59 14.2 °C 12.4 °C 1012.5 hPa West 3.2 km/h 6.4 km/h 89% 0.0 mm 0 W/m2
04:04 14.2 °C 12.6 °C 1012.5 hPa West 3.2 km/h 3.2 km/h 90% 0.0 mm 0 W/m2
04:09 14.2 °C 12.4 °C 1012.5 hPa Calm   3.2 km/h 89% 0.0 mm 0 W/m2
04:14 14.1 °C 12.3 °C 1012.5 hPa Calm     89% 0.0 mm 0 W/m2
04:33 14.1 °C 12.5 °C 1012.5 hPa Calm   1.6 km/h 90% 0.0 mm 0 W/m2
04:38 14.1 °C 12.5 °C 1012.5 hPa Calm   1.6 km/h 90% 0.0 mm 0 W/m2
04:43 14.1 °C 12.7 °C 1012.5 hPa Calm     91% 0.0 mm 0 W/m2
04:48 14.2 °C 12.8 °C 1012.5 hPa West 1.4 km/h 1.6 km/h 91% 0.0 mm 0 W/m2
04:54 14.2 °C 12.8 °C 1012.5 hPa West 1.4 km/h 4.8 km/h 91% 0.0 mm 0 W/m2
04:59 14.3 °C 12.9 °C 1012.5 hPa West 3.2 km/h 3.2 km/h 91% 0.0 mm 0 W/m2
05:04 14.3 °C 12.9 °C 1012.5 hPa West 3.2 km/h 4.8 km/h 91% 0.0 mm 0 W/m2
05:09 14.4 °C 12.8 °C 1012.5 hPa Calm   3.2 km/h 90% 0.0 mm 0 W/m2
05:14 14.4 °C 12.8 °C 1012.5 hPa NNW 1.4 km/h 1.6 km/h 90% 0.0 mm 0 W/m2
05:19 14.4 °C 12.8 °C 1012.5 hPa WNW 3.2 km/h 3.2 km/h 90% 0.0 mm 0 W/m2
05:24 14.4 °C 12.8 °C 1012.5 hPa WNW 3.2 km/h 3.2 km/h 90% 0.0 mm 0 W/m2
05:29 14.3 °C 12.7 °C 1012.5 hPa Calm   3.2 km/h 90% 0.0 mm 0 W/m2
05:47 14.1 °C 12.5 °C 1012.9 hPa Calm     90% 0.0 mm 0 W/m2
05:52 14 °C 12.6 °C 1012.9 hPa Calm     91% 0.0 mm 0 W/m2
05:57 14 °C 12.6 °C 1012.9 hPa Calm   3.2 km/h 91% 0.0 mm 0 W/m2
06:02 14.1 °C 12.7 °C 1012.9 hPa WSW 1.4 km/h 3.2 km/h 91% 0.0 mm 0 W/m2
06:07 14.1 °C 12.8 °C 1012.9 hPa Calm   1.6 km/h 92% 0.0 mm 0 W/m2
06:12 14.1 °C 12.7 °C 1012.9 hPa Calm     91% 0.0 mm 0 W/m2
06:29 14.2 °C 12.8 °C 1012.9 hPa Calm   3.2 km/h 91% 0.0 mm 9 W/m2
06:34 14.3 °C 12.9 °C 1012.9 hPa Calm   4.8 km/h 91% 0.0 mm 16 W/m2
06:39 14.3 °C 12.9 °C 1013.2 hPa Calm   1.6 km/h 91% 0.0 mm 23 W/m2
06:44 14.4 °C 12.9 °C 1013.2 hPa NW 1.4 km/h 4.8 km/h 91% 0.0 mm 33 W/m2
06:49 14.4 °C 12.9 °C 1013.2 hPa Calm   1.6 km/h 91% 0.0 mm 37 W/m2
06:54 14.4 °C 12.9 °C 1013.2 hPa Calm   4.8 km/h 91% 0.0 mm 35 W/m2
06:59 14.5 °C 13 °C 1013.2 hPa Calm   3.2 km/h 91% 0.0 mm 37 W/m2
07:04 14.6 °C 13.1 °C 1013.2 hPa ENE 1.4 km/h 3.2 km/h 91% 0.0 mm 42 W/m2
07:09 14.7 °C 13.2 °C 1013.2 hPa Calm   1.6 km/h 91% 0.0 mm 47 W/m2
07:14 14.8 °C 13.3 °C 1013.2 hPa Calm   1.6 km/h 91% 0.0 mm 53 W/m2
07:19 14.8 °C 13.2 °C 1013.2 hPa Calm   3.2 km/h 90% 0.0 mm 70 W/m2
07:24 14.9 °C 13.3 °C 1013.2 hPa Calm     90% 0.0 mm 84 W/m2
07:29 15.1 °C 13.5 °C 1013.2 hPa WNW 1.4 km/h 3.2 km/h 90% 0.0 mm 62 W/m2
07:34 15.1 °C 13.5 °C 1013.2 hPa Calm     90% 0.0 mm 54 W/m2
07:39 15.2 °C 13.4 °C 1013.2 hPa Calm   3.2 km/h 89% 0.0 mm 81 W/m2
07:44 15.3 °C 13.5 °C 1013.2 hPa Calm   3.2 km/h 89% 0.0 mm 93 W/m2
07:49 15.3 °C 13.5 °C 1013.2 hPa Calm   3.2 km/h 89% 0.0 mm 100 W/m2
07:54 15.4 °C 13.6 °C 1013.2 hPa South 1.4 km/h 3.2 km/h 89% 0.0 mm 105 W/m2
07:59 15.4 °C 13.6 °C 1013.2 hPa WNW 3.2 km/h 4.8 km/h 89% 0.0 mm 102 W/m2
08:04 15.6 °C 13.6 °C 1013.2 hPa WNW 1.4 km/h 6.4 km/h 88% 0.0 mm 97 W/m2
08:09 15.6 °C 13.6 °C 1013.5 hPa NNW 3.2 km/h 4.8 km/h 88% 0.0 mm 95 W/m2
08:14 15.7 °C 13.7 °C 1013.5 hPa Calm   6.4 km/h 88% 0.0 mm 100 W/m2
08:19 15.7 °C 13.5 °C 1013.5 hPa WNW 1.4 km/h 3.2 km/h 87% 0.0 mm 109 W/m2
08:24 15.8 °C 13.6 °C 1013.5 hPa East 3.2 km/h 6.4 km/h 87% 0.0 mm 125 W/m2
08:29 15.9 °C 13.7 °C 1013.5 hPa SW 1.4 km/h 3.2 km/h 87% 0.0 mm 146 W/m2
08:34 16 °C 14 °C 1013.5 hPa NNW 3.2 km/h 6.4 km/h 88% 0.0 mm 151 W/m2
08:39 16 °C 13.8 °C 1013.5 hPa SSE 1.4 km/h 4.8 km/h 87% 0.0 mm 163 W/m2
08:44 16 °C 13.8 °C 1013.5 hPa Calm   3.2 km/h 87% 0.0 mm 197 W/m2
08:49 16.1 °C 13.9 °C 1013.5 hPa NNW 3.2 km/h 6.4 km/h 87% 0.0 mm 179 W/m2
08:54 16.2 °C 14 °C 1013.5 hPa WSW 7.9 km/h 9.7 km/h 87% 0.0 mm 171 W/m2
09:13 16.3 °C 14.1 °C 1013.5 hPa West 1.4 km/h 6.4 km/h 87% 0.0 mm 243 W/m2
09:18 16.4 °C 14.1 °C 1013.5 hPa WSW 4.7 km/h 11.3 km/h 86% 0.0 mm 218 W/m2
09:23 16.4 °C 14.1 °C 1013.5 hPa NW 3.2 km/h 6.4 km/h 86% 0.0 mm 258 W/m2
09:28 16.6 °C 14.2 °C 1013.5 hPa WSW 4.7 km/h 9.7 km/h 86% 0.0 mm 250 W/m2
09:33 16.6 °C 14.2 °C 1013.9 hPa WSW 11.1 km/h 11.3 km/h 86% 0.0 mm 236 W/m2
09:38 16.7 °C 14.3 °C 1013.9 hPa WNW 3.2 km/h 6.4 km/h 86% 0.0 mm 193 W/m2
09:43 16.8 °C 14.3 °C 1013.9 hPa West 3.2 km/h 6.4 km/h 85% 0.0 mm 188 W/m2
09:48 16.8 °C 14.3 °C 1013.9 hPa NW 3.2 km/h 8 km/h 85% 0.0 mm 165 W/m2
09:53 16.8 °C 14.3 °C 1013.9 hPa NW 6.4 km/h 11.3 km/h 85% 0.0 mm 176 W/m2
10:11 17.2 °C 14.5 °C 1013.9 hPa NW 3.2 km/h 4.8 km/h 84% 0.0 mm 239 W/m2
10:16 17.2 °C 14.3 °C 1013.9 hPa Calm   8 km/h 83% 0.0 mm 156 W/m2
10:21 17.2 °C 14.5 °C 1013.9 hPa NE 1.4 km/h 9.7 km/h 84% 0.0 mm 167 W/m2
10:26 17.2 °C 14.5 °C 1013.9 hPa SW 1.4 km/h 6.4 km/h 84% 0.0 mm 236 W/m2
10:31 17.2 °C 14.5 °C 1013.9 hPa NNW 3.2 km/h 3.2 km/h 84% 0.0 mm 218 W/m2
10:36 17.3 °C 14.6 °C 1013.9 hPa SSW 3.2 km/h 6.4 km/h 84% 0.0 mm 341 W/m2
10:41 17.4 °C 14.5 °C 1013.9 hPa WNW 6.4 km/h 11.3 km/h 83% 0.0 mm 176 W/m2
10:47 17.5 °C 14.6 °C 1013.9 hPa Calm   4.8 km/h 83% 0.0 mm 183 W/m2
10:52 17.6 °C 14.5 °C 1013.9 hPa SW 1.4 km/h 11.3 km/h 82% 0.0 mm 232 W/m2
10:57 17.6 °C 14.3 °C 1013.9 hPa NW 6.4 km/h 9.7 km/h 81% 0.0 mm 338 W/m2
11:02 17.7 °C 14.6 °C 1013.9 hPa WNW 4.7 km/h 12.9 km/h 82% 0.0 mm 557 W/m2
11:07 17.8 °C 14.5 °C 1013.9 hPa West 4.7 km/h 9.7 km/h 81% 0.0 mm 313 W/m2
11:12 17.9 °C 14.4 °C 1013.9 hPa WSW 11.1 km/h 12.9 km/h 80% 0.0 mm 345 W/m2
11:17 18.1 °C 14.6 °C 1013.9 hPa WNW 4.7 km/h 9.7 km/h 80% 0.0 mm 348 W/m2
11:22 18.2 °C 14.5 °C 1013.9 hPa NW 11.1 km/h 12.9 km/h 79% 0.0 mm 239 W/m2
11:27 18.1 °C 14.6 °C 1013.9 hPa West 9.7 km/h 9.7 km/h 80% 0.5 mm 118 W/m2
11:32 17.7 °C 14.8 °C 1013.9 hPa West 3.2 km/h 6.4 km/h 83% 0.5 mm 127 W/m2
11:37 17.4 °C 14.9 °C 1013.9 hPa West 4.7 km/h 4.8 km/h 85% 0.5 mm 241 W/m2
11:42 17.3 °C 14.8 °C 1013.9 hPa WNW 3.2 km/h 8 km/h 85% 0.5 mm 350 W/m2
11:47 17.7 °C 15 °C 1013.9 hPa Calm   4.8 km/h 84% 0.5 mm 267 W/m2
11:52 17.9 °C 15 °C 1013.9 hPa NW 7.9 km/h 12.9 km/h 83% 0.5 mm 188 W/m2
11:57 18.1 °C 14.8 °C 1013.9 hPa WSW 3.2 km/h 9.7 km/h 81% 0.5 mm 253 W/m2
12:02 18.3 °C 14.8 °C 1013.9 hPa NW 6.4 km/h 12.9 km/h 80% 0.5 mm 780 W/m2
12:07 18.7 °C 14.8 °C 1013.9 hPa WSW 7.9 km/h 16.1 km/h 78% 0.5 mm 749 W/m2
12:12 18.6 °C 14.5 °C 1013.9 hPa West 3.2 km/h 6.4 km/h 77% 0.5 mm 104 W/m2
12:17 18.5 °C 15 °C 1013.9 hPa Calm   16.1 km/h 80% 0.5 mm 127 W/m2
12:22 18.3 °C 14.4 °C 1013.9 hPa Calm   4.8 km/h 78% 0.5 mm 206 W/m2
12:27 18.3 °C 14.4 °C 1013.9 hPa Calm   12.9 km/h 78% 0.0 mm 387 W/m2
12:32 18.4 °C 14.7 °C 1013.9 hPa North 1.4 km/h 3.2 km/h 79% 0.0 mm 654 W/m2
12:37 18.5 °C 14.6 °C 1013.9 hPa WSW 6.4 km/h 8 km/h 78% 0.0 mm 497 W/m2
12:42 18.9 °C 15 °C 1013.5 hPa Calm   1.6 km/h 78% 0.0 mm 635 W/m2
12:47 19.3 °C 14.8 °C 1013.5 hPa WNW 7.9 km/h 16.1 km/h 75% 0.0 mm 464 W/m2
12:52 19.3 °C 14.3 °C 1013.5 hPa West 11.1 km/h 12.9 km/h 73% 0.0 mm 244 W/m2
12:57 19.2 °C 14 °C 1013.5 hPa NW 11.1 km/h 12.9 km/h 72% 0.0 mm 188 W/m2
13:02 19.1 °C 14.1 °C 1013.5 hPa West 6.4 km/h 14.5 km/h 73% 0.0 mm 211 W/m2
13:07 19.3 °C 13.9 °C 1013.5 hPa NW 7.9 km/h 12.9 km/h 71% 0.0 mm 1004 W/m2
13:12 19.8 °C 14.4 °C 1013.5 hPa WNW 6.4 km/h 16.1 km/h 71% 0.0 mm 427 W/m2
13:17 20.1 °C 14.5 °C 1013.5 hPa West 9.7 km/h 16.1 km/h 70% 0.0 mm 1020 W/m2
13:22 20.3 °C 13.7 °C 1013.5 hPa West 9.7 km/h 17.7 km/h 66% 0.0 mm 1021 W/m2
13:27 20.2 °C 14.3 °C 1013.5 hPa WNW 4.7 km/h 12.9 km/h 69% 0.0 mm 944 W/m2
13:32 20.2 °C 14.1 °C 1013.5 hPa WSW 11.1 km/h 11.3 km/h 68% 0.0 mm 367 W/m2
13:37 20.1 °C 14.2 °C 1013.5 hPa WSW 7.9 km/h 9.7 km/h 69% 0.0 mm 441 W/m2
13:42 20 °C 14.1 °C 1013.5 hPa West 4.7 km/h 9.7 km/h 69% 0.0 mm 357 W/m2
13:47 20 °C 14.1 °C 1013.5 hPa WNW 6.4 km/h 6.4 km/h 69% 0.0 mm 921 W/m2
13:52 20.2 °C 14.3 °C 1013.5 hPa NE 1.4 km/h 4.8 km/h 69% 0.0 mm 960 W/m2
13:57 20.6 °C 14.7 °C 1013.5 hPa North 1.4 km/h 14.5 km/h 69% 0.0 mm 965 W/m2
14:02 20.9 °C 15 °C 1013.2 hPa WSW 11.1 km/h 12.9 km/h 69% 0.0 mm 911 W/m2
14:07 21 °C 14.6 °C 1013.5 hPa West 11.1 km/h 16.1 km/h 67% 0.0 mm 949 W/m2
14:12 20.9 °C 14.5 °C 1013.2 hPa WSW 4.7 km/h 14.5 km/h 67% 0.0 mm 979 W/m2
14:17 21.1 °C 14.3 °C 1013.2 hPa WSW 3.2 km/h 12.9 km/h 65% 0.0 mm 1009 W/m2
14:22 21.2 °C 14.8 °C 1013.2 hPa NW 3.2 km/h 6.4 km/h 67% 0.0 mm 408 W/m2
14:27 21.1 °C 14.3 °C 1013.2 hPa West 4.7 km/h 11.3 km/h 65% 0.0 mm 281 W/m2
14:32 20.8 °C 14.2 °C 1013.2 hPa NW 3.2 km/h 9.7 km/h 66% 0.0 mm 135 W/m2
14:37 20.7 °C 14.1 °C 1013.5 hPa West 9.7 km/h 12.9 km/h 66% 0.0 mm 193 W/m2
14:42 20.7 °C 14.4 °C 1013.2 hPa WNW 6.4 km/h 11.3 km/h 67% 0.0 mm 1062 W/m2
14:47 20.8 °C 14 °C 1013.2 hPa WSW 13 km/h 12.9 km/h 65% 0.0 mm 220 W/m2
14:52 20.8 °C 13.3 °C 1013.2 hPa WNW 4.7 km/h 14.5 km/h 62% 0.0 mm 965 W/m2
14:57 21.1 °C 13.3 °C 1013.2 hPa West 9.7 km/h 12.9 km/h 61% 0.0 mm 232 W/m2
15:02 20.9 °C 13.1 °C 1013.2 hPa WNW 6.4 km/h 14.5 km/h 61% 0.0 mm 267 W/m2
15:07 20.8 °C 13.7 °C 1013.2 hPa SW 6.4 km/h 9.7 km/h 64% 0.0 mm 1071 W/m2
15:24 21 °C 13.9 °C 1013.2 hPa WSW 6.4 km/h 16.1 km/h 64% 0.0 mm 983 W/m2
15:29 21.3 °C 14 °C 1013.2 hPa WNW 6.4 km/h 14.5 km/h 63% 0.0 mm 896 W/m2
15:34 21.5 °C 14.4 °C 1013.2 hPa NW 6.4 km/h 9.7 km/h 64% 0.0 mm 186 W/m2
15:39 21.5 °C 14.2 °C 1013.2 hPa West 11.1 km/h 11.3 km/h 63% 0.0 mm 374 W/m2
15:44 21.8 °C 14.2 °C 1013.2 hPa NW 4.7 km/h 14.5 km/h 62% 0.0 mm 912 W/m2
15:49 22.1 °C 14.5 °C 1013.2 hPa WNW 6.4 km/h 14.5 km/h 62% 0.0 mm 229 W/m2
15:54 21.8 °C 14.2 °C 1012.9 hPa WSW 4.7 km/h 9.7 km/h 62% 0.0 mm 207 W/m2
15:59 21.7 °C 14.3 °C 1012.9 hPa WSW 3.2 km/h 14.5 km/h 63% 0.0 mm 153 W/m2
16:04 21.4 °C 14.5 °C 1012.9 hPa NW 1.4 km/h 11.3 km/h 65% 0.0 mm 503 W/m2
16:09 21.7 °C 14.6 °C 1012.9 hPa NNW 7.9 km/h 11.3 km/h 64% 0.0 mm 773 W/m2
16:14 22 °C 14.4 °C 1012.9 hPa West 4.7 km/h 11.3 km/h 62% 0.0 mm 172 W/m2
16:19 21.8 °C 13.9 °C 1012.9 hPa West 11.1 km/h 16.1 km/h 61% 0.0 mm 220 W/m2
16:25 21.4 °C 14.1 °C 1012.9 hPa West 4.7 km/h 24.1 km/h 63% 0.0 mm 149 W/m2
16:41 21.1 °C 14 °C 1012.9 hPa West 14.3 km/h 14.5 km/h 64% 0.0 mm 817 W/m2
16:46 21.4 °C 12.8 °C 1013.2 hPa NNE 20.9 km/h 20.9 km/h 58% 0.0 mm 677 W/m2
16:51 21.4 °C 12.8 °C 1012.9 hPa NW 7.9 km/h 14.5 km/h 58% 0.0 mm 701 W/m2
16:56 21.4 °C 12.3 °C 1012.9 hPa NW 6.4 km/h 19.3 km/h 56% 0.0 mm 740 W/m2
17:01 21.4 °C 12.5 °C 1012.9 hPa NW 1.4 km/h 14.5 km/h 57% 0.0 mm 733 W/m2
17:06 21.7 °C 12.8 °C 1013.2 hPa WNW 11.1 km/h 19.3 km/h 57% 0.0 mm 710 W/m2
17:11 21.6 °C 12.2 °C 1012.9 hPa NW 4.7 km/h 12.9 km/h 55% 0.0 mm 302 W/m2
17:16 21.4 °C 12 °C 1013.2 hPa WSW 6.4 km/h 14.5 km/h 55% 0.0 mm 408 W/m2
17:21 21.6 °C 12.7 °C 1013.2 hPa West 4.7 km/h 12.9 km/h 57% 0.0 mm 673 W/m2
17:26 21.9 °C 13.3 °C 1013.2 hPa WNW 4.7 km/h 9.7 km/h 58% 0.0 mm 621 W/m2
17:31 21.8 °C 13.2 °C 1013.2 hPa SW 11.1 km/h 14.5 km/h 58% 0.0 mm 251 W/m2
17:36 21.5 °C 12.9 °C 1013.2 hPa WSW 3.2 km/h 8 km/h 58% 0.0 mm 225 W/m2
17:41 21.2 °C 13.1 °C 1013.2 hPa WNW 7.9 km/h 17.7 km/h 60% 0.0 mm 211 W/m2
17:46 20.8 °C 13.3 °C 1013.2 hPa West 4.7 km/h 14.5 km/h 62% 0.0 mm 176 W/m2
17:51 20.7 °C 13.2 °C 1013.2 hPa WNW 7.9 km/h 12.9 km/h 62% 0.0 mm 155 W/m2
17:56 20.6 °C 13.6 °C 1013.2 hPa WNW 3.2 km/h 6.4 km/h 64% 0.0 mm 146 W/m2
18:13 19.9 °C 13.8 °C 1013.2 hPa WNW 4.7 km/h 12.9 km/h 68% 0.0 mm 148 W/m2
18:18 19.8 °C 13.9 °C 1013.2 hPa WNW 6.4 km/h 9.7 km/h 69% 0.0 mm 121 W/m2
18:23 19.7 °C 14.1 °C 1013.2 hPa WNW 4.7 km/h 6.4 km/h 70% 0.0 mm 139 W/m2
18:28 19.7 °C 13.9 °C 1013.2 hPa West 4.7 km/h 11.3 km/h 69% 0.0 mm 176 W/m2
18:33 19.8 °C 14.2 °C 1013.2 hPa West 4.7 km/h 9.7 km/h 70% 0.0 mm 403 W/m2
18:38 20.1 °C 14 °C 1013.2 hPa West 1.4 km/h 8 km/h 68% 0.0 mm 225 W/m2
18:43 20.2 °C 14.1 °C 1013.2 hPa WNW 1.4 km/h 11.3 km/h 68% 0.0 mm 156 W/m2
19:00 20.1 °C 14 °C 1013.2 hPa West 4.7 km/h 6.4 km/h 68% 0.0 mm 127 W/m2
19:05 20 °C 14.1 °C 1013.2 hPa West 3.2 km/h 4.8 km/h 69% 0.0 mm 135 W/m2
19:10 20 °C 14.4 °C 1013.5 hPa WNW 1.4 km/h 6.4 km/h 70% 0.0 mm 139 W/m2
19:15 20.1 °C 14.5 °C 1013.5 hPa NW 3.2 km/h 9.7 km/h 70% 0.0 mm 121 W/m2
19:20 20 °C 14.4 °C 1013.5 hPa WNW 1.4 km/h 6.4 km/h 70% 0.0 mm 93 W/m2
19:25 19.9 °C 14.3 °C 1013.5 hPa WNW 3.2 km/h 6.4 km/h 70% 0.0 mm 120 W/m2
19:30 19.9 °C 14.3 °C 1013.5 hPa West 3.2 km/h 9.7 km/h 70% 0.0 mm 97 W/m2
19:35 19.9 °C 14.5 °C 1013.5 hPa WSW 4.7 km/h 4.8 km/h 71% 0.0 mm 102 W/m2
19:40 19.9 °C 14.5 °C 1013.5 hPa West 3.2 km/h 6.4 km/h 71% 0.0 mm 72 W/m2
19:45 19.8 °C 14.2 °C 1013.5 hPa NW 14.3 km/h 22.5 km/h 70% 0.0 mm 56 W/m2
19:50 19.4 °C 13.3 °C 1013.5 hPa West 11.1 km/h 20.9 km/h 68% 0.0 mm 51 W/m2
20:07 18.6 °C 13.2 °C 1013.9 hPa West 4.7 km/h 12.9 km/h 71% 0.0 mm 16 W/m2
20:12 18.4 °C 13 °C 1013.9 hPa WSW 4.7 km/h 12.9 km/h 71% 0.0 mm 12 W/m2
20:17 18.3 °C 12.7 °C 1013.9 hPa WNW 3.2 km/h 12.9 km/h 70% 0.0 mm 11 W/m2
20:22 18.3 °C 13 °C 1013.9 hPa WSW 3.2 km/h 6.4 km/h 71% 0.0 mm 11 W/m2
20:27 18.2 °C 13.1 °C 1013.9 hPa WSW 4.7 km/h 9.7 km/h 72% 0.0 mm 9 W/m2
20:32 18.1 °C 13 °C 1013.9 hPa WNW 6.4 km/h 6.4 km/h 72% 0.0 mm 9 W/m2
20:38 17.8 °C 13.1 °C 1014.2 hPa WSW 6.4 km/h 9.7 km/h 74% 0.0 mm 9 W/m2
20:53 17.1 °C 14.2 °C 1013.9 hPa Calm     83% 0.0 mm 0 W/m2
20:58 16.8 °C 14.3 °C 1014.2 hPa Calm   3.2 km/h 85% 0.2 mm 0 W/m2
21:03 16.6 °C 14.4 °C 1013.9 hPa Calm   3.2 km/h 87% 0.2 mm 0 W/m2
21:08 16.4 °C 14.4 °C 1013.9 hPa WSW 1.4 km/h 3.2 km/h 88% 0.2 mm 0 W/m2
21:13 16.3 °C 14.5 °C 1013.9 hPa Calm   1.6 km/h 89% 0.2 mm 0 W/m2
21:19 16.1 °C 14.3 °C 1014.2 hPa Calm   3.2 km/h 89% 0.2 mm 0 W/m2
21:24 15.8 °C 14 °C 1014.2 hPa Calm     89% 0.2 mm 0 W/m2
21:29 15.6 °C 14 °C 1014.2 hPa Calm   3.2 km/h 90% 0.2 mm 0 W/m2
21:34 15.5 °C 14 °C 1014.2 hPa Calm     91% 0.2 mm 0 W/m2
21:39 15.3 °C 13.8 °C 1014.2 hPa Calm   3.2 km/h 91% 0.2 mm 0 W/m2
21:44 15.2 °C 13.7 °C 1014.2 hPa Calm   1.6 km/h 91% 0.2 mm 0 W/m2
21:49 15.1 °C 13.6 °C 1014.2 hPa Calm     91% 0.2 mm 0 W/m2
21:54 15 °C 13.7 °C 1014.2 hPa WSW 1.4 km/h 1.6 km/h 92% 0.0 mm 0 W/m2
21:59 14.9 °C 13.6 °C 1014.2 hPa Calm   1.6 km/h 92% 0.0 mm 0 W/m2
22:04 14.8 °C 13.5 °C 1014.2 hPa Calm     92% 0.0 mm 0 W/m2
22:09 14.7 °C 13.4 °C 1014.2 hPa Calm   1.6 km/h 92% 0.0 mm 0 W/m2
22:14 14.6 °C 13.3 °C 1014.2 hPa Calm     92% 0.0 mm 0 W/m2
22:19 14.5 °C 13.2 °C 1014.2 hPa Calm     92% 0.0 mm 0 W/m2
22:24 14.4 °C 13.3 °C 1014.2 hPa Calm   1.6 km/h 93% 0.0 mm 0 W/m2
22:29 14.3 °C 13.2 °C 1014.2 hPa Calm     93% 0.0 mm 0 W/m2
22:34 14.2 °C 13.1 °C 1014.2 hPa Calm   1.6 km/h 93% 0.0 mm 0 W/m2
22:39 14.2 °C 13.1 °C 1014.2 hPa Calm   1.6 km/h 93% 0.0 mm 0 W/m2
22:44 14.1 °C 13 °C 1014.2 hPa Calm   1.6 km/h 93% 0.0 mm 0 W/m2
22:49 14.1 °C 13.1 °C 1014.6 hPa Calm     94% 0.0 mm 0 W/m2
22:54 14 °C 13 °C 1014.2 hPa Calm     94% 0.0 mm 0 W/m2
22:59 13.9 °C 12.9 °C 1014.6 hPa Calm     94% 0.0 mm 0 W/m2
23:04 14 °C 13 °C 1014.6 hPa Calm     94% 0.0 mm 0 W/m2
23:09 14.1 °C 13.1 °C 1014.6 hPa Calm     94% 0.0 mm 0 W/m2
23:14 14.1 °C 13.1 °C 1014.6 hPa Calm     94% 0.0 mm 0 W/m2
23:19 14.2 °C 13.4 °C 1014.6 hPa Calm     95% 0.0 mm 0 W/m2
23:24 14.3 °C 13.5 °C 1014.6 hPa Calm   3.2 km/h 95% 0.0 mm 0 W/m2
23:43 14.6 °C 13.8 °C 1014.6 hPa West 1.4 km/h 4.8 km/h 95% 0.0 mm 0 W/m2
23:48 14.7 °C 13.7 °C 1014.6 hPa Calm     94% 0.5 mm 0 W/m2
23:53 14.7 °C 13.7 °C 1014.6 hPa Calm   4.8 km/h 94% 0.8 mm 0 W/m2
23:58 14.7 °C 13.7 °C 1014.6 hPa Calm     94% 1.0 mm 0 W/m2
Juneau County Weather
Compliments of Weather Underground - 4 mb